sensor_id;sensor_type;location;lat;lon;timestamp;temperature;humidity
7341;DHT22;6870;50.944;6.932;2023-04-15T00:00:01;20.80;25.10
7341;DHT22;6870;50.944;6.932;2023-04-15T00:02:29;20.80;24.80
7341;DHT22;6870;50.944;6.932;2023-04-15T00:04:57;21.00;25.30
7341;DHT22;6870;50.944;6.932;2023-04-15T00:07:25;20.50;25.10
7341;DHT22;6870;50.944;6.932;2023-04-15T00:09:55;20.80;25.30
7341;DHT22;6870;50.944;6.932;2023-04-15T00:12:23;20.40;25.00
7341;DHT22;6870;50.944;6.932;2023-04-15T00:14:51;20.70;25.20
7341;DHT22;6870;50.944;6.932;2023-04-15T00:17:21;20.80;25.10
7341;DHT22;6870;50.944;6.932;2023-04-15T00:19:49;20.60;25.30
7341;DHT22;6870;50.944;6.932;2023-04-15T00:22:17;20.50;25.20
7341;DHT22;6870;50.944;6.932;2023-04-15T00:24:45;20.50;25.00
7341;DHT22;6870;50.944;6.932;2023-04-15T00:27:13;20.60;25.40
7341;DHT22;6870;50.944;6.932;2023-04-15T00:29:41;20.60;25.40
7341;DHT22;6870;50.944;6.932;2023-04-15T00:32:10;20.40;24.90
7341;DHT22;6870;50.944;6.932;2023-04-15T00:34:39;20.70;25.50
7341;DHT22;6870;50.944;6.932;2023-04-15T00:37:08;20.70;25.50
7341;DHT22;6870;50.944;6.932;2023-04-15T00:39:36;20.80;25.70
7341;DHT22;6870;50.944;6.932;2023-04-15T00:42:04;20.40;25.50
7341;DHT22;6870;50.944;6.932;2023-04-15T00:44:32;20.60;25.60
7341;DHT22;6870;50.944;6.932;2023-04-15T00:47:00;20.40;25.60
7341;DHT22;6870;50.944;6.932;2023-04-15T00:49:29;20.70;25.80
7341;DHT22;6870;50.944;6.932;2023-04-15T00:51:59;20.70;25.80
7341;DHT22;6870;50.944;6.932;2023-04-15T00:54:27;20.70;25.90
7341;DHT22;6870;50.944;6.932;2023-04-15T00:56:55;20.70;25.90
7341;DHT22;6870;50.944;6.932;2023-04-15T00:59:23;20.50;25.80
7341;DHT22;6870;50.944;6.932;2023-04-15T01:01:52;20.40;25.80
7341;DHT22;6870;50.944;6.932;2023-04-15T01:04:20;20.60;26.60
7341;DHT22;6870;50.944;6.932;2023-04-15T01:06:48;20.60;26.00
7341;DHT22;6870;50.944;6.932;2023-04-15T01:09:18;20.60;26.00
7341;DHT22;6870;50.944;6.932;2023-04-15T01:11:46;20.60;26.10
7341;DHT22;6870;50.944;6.932;2023-04-15T01:14:14;20.40;25.90
7341;DHT22;6870;50.944;6.932;2023-04-15T01:16:43;20.60;26.10
7341;DHT22;6870;50.944;6.932;2023-04-15T01:19:12;20.70;26.10
7341;DHT22;6870;50.944;6.932;2023-04-15T01:21:41;20.30;25.90
7341;DHT22;6870;50.944;6.932;2023-04-15T01:24:09;20.50;26.00
7341;DHT22;6870;50.944;6.932;2023-04-15T01:26:40;20.70;26.20
7341;DHT22;6870;50.944;6.932;2023-04-15T01:29:10;20.30;25.90
7341;DHT22;6870;50.944;6.932;2023-04-15T01:31:38;20.30;25.60
7341;DHT22;6870;50.944;6.932;2023-04-15T01:34:06;20.70;26.30
7341;DHT22;6870;50.944;6.932;2023-04-15T01:36:35;20.20;25.90
7341;DHT22;6870;50.944;6.932;2023-04-15T01:39:03;20.10;25.60
7341;DHT22;6870;50.944;6.932;2023-04-15T01:41:32;20.70;26.30
7341;DHT22;6870;50.944;6.932;2023-04-15T01:44:01;20.30;25.60
7341;DHT22;6870;50.944;6.932;2023-04-15T01:46:29;20.30;25.80
7341;DHT22;6870;50.944;6.932;2023-04-15T01:48:58;20.40;25.70
7341;DHT22;6870;50.944;6.932;2023-04-15T01:51:26;20.70;26.50
7341;DHT22;6870;50.944;6.932;2023-04-15T01:53:54;20.40;26.30
7341;DHT22;6870;50.944;6.932;2023-04-15T01:56:23;20.30;26.30
7341;DHT22;6870;50.944;6.932;2023-04-15T01:58:51;20.40;26.20
7341;DHT22;6870;50.944;6.932;2023-04-15T02:05:27;20.50;26.50
7341;DHT22;6870;50.944;6.932;2023-04-15T02:07:56;20.20;26.00
7341;DHT22;6870;50.944;6.932;2023-04-15T02:10:24;20.30;26.30
7341;DHT22;6870;50.944;6.932;2023-04-15T02:12:53;20.70;26.70
7341;DHT22;6870;50.944;6.932;2023-04-15T02:15:21;20.50;26.50
7341;DHT22;6870;50.944;6.932;2023-04-15T02:17:49;20.30;26.10
7341;DHT22;6870;50.944;6.932;2023-04-15T02:20:18;20.40;26.50
7341;DHT22;6870;50.944;6.932;2023-04-15T02:22:49;20.00;26.20
7341;DHT22;6870;50.944;6.932;2023-04-15T02:25:17;20.20;25.90
7341;DHT22;6870;50.944;6.932;2023-04-15T02:27:46;20.30;26.50
7341;DHT22;6870;50.944;6.932;2023-04-15T02:30:14;20.30;26.50
7341;DHT22;6870;50.944;6.932;2023-04-15T02:32:42;20.40;26.60
7341;DHT22;6870;50.944;6.932;2023-04-15T02:35:11;20.40;26.50
7341;DHT22;6870;50.944;6.932;2023-04-15T02:37:39;20.30;26.60
7341;DHT22;6870;50.944;6.932;2023-04-15T02:40:11;20.00;26.20
7341;DHT22;6870;50.944;6.932;2023-04-15T02:42:40;20.20;26.50
7341;DHT22;6870;50.944;6.932;2023-04-15T02:45:10;20.20;26.60
7341;DHT22;6870;50.944;6.932;2023-04-15T02:47:39;19.80;26.40
7341;DHT22;6870;50.944;6.932;2023-04-15T02:50:09;20.00;26.50
7341;DHT22;6870;50.944;6.932;2023-04-15T02:52:39;20.20;26.60
7341;DHT22;6870;50.944;6.932;2023-04-15T02:55:08;19.90;26.20
7341;DHT22;6870;50.944;6.932;2023-04-15T02:57:37;20.10;26.60
7341;DHT22;6870;50.944;6.932;2023-04-15T03:00:07;20.30;26.70
7341;DHT22;6870;50.944;6.932;2023-04-15T03:02:37;20.20;26.70
7341;DHT22;6870;50.944;6.932;2023-04-15T03:05:11;20.10;26.70
7341;DHT22;6870;50.944;6.932;2023-04-15T03:07:39;20.10;26.70
7341;DHT22;6870;50.944;6.932;2023-04-15T03:10:08;20.40;26.90
7341;DHT22;6870;50.944;6.932;2023-04-15T03:12:38;20.30;27.40
7341;DHT22;6870;50.944;6.932;2023-04-15T03:15:08;20.20;26.80
7341;DHT22;6870;50.944;6.932;2023-04-15T03:17:37;20.10;26.40
7341;DHT22;6870;50.944;6.932;2023-04-15T03:20:06;20.10;26.40
7341;DHT22;6870;50.944;6.932;2023-04-15T03:22:35;19.90;26.70
7341;DHT22;6870;50.944;6.932;2023-04-15T03:25:03;19.80;26.70
7341;DHT22;6870;50.944;6.932;2023-04-15T03:27:32;19.90;26.70
7341;DHT22;6870;50.944;6.932;2023-04-15T03:30:01;20.10;26.70
7341;DHT22;6870;50.944;6.932;2023-04-15T03:32:29;19.90;26.70
7341;DHT22;6870;50.944;6.932;2023-04-15T03:34:58;19.80;26.70
7341;DHT22;6870;50.944;6.932;2023-04-15T03:37:25;20.00;26.90
7341;DHT22;6870;50.944;6.932;2023-04-15T03:39:53;20.20;26.60
7341;DHT22;6870;50.944;6.932;2023-04-15T03:42:22;19.90;26.60
7341;DHT22;6870;50.944;6.932;2023-04-15T03:44:50;19.90;26.50
7341;DHT22;6870;50.944;6.932;2023-04-15T03:47:19;19.90;26.60
7341;DHT22;6870;50.944;6.932;2023-04-15T03:49:47;19.90;26.50
7341;DHT22;6870;50.944;6.932;2023-04-15T03:52:15;20.00;26.70
7341;DHT22;6870;50.944;6.932;2023-04-15T03:54:43;19.90;27.00
7341;DHT22;6870;50.944;6.932;2023-04-15T03:57:11;20.00;27.10
7341;DHT22;6870;50.944;6.932;2023-04-15T03:59:39;19.90;27.60
7341;DHT22;6870;50.944;6.932;2023-04-15T04:02:07;20.20;27.20
7341;DHT22;6870;50.944;6.932;2023-04-15T04:04:37;20.00;27.10
7341;DHT22;6870;50.944;6.932;2023-04-15T04:07:05;20.10;27.20
7341;DHT22;6870;50.944;6.932;2023-04-15T04:09:33;19.70;26.90
7341;DHT22;6870;50.944;6.932;2023-04-15T04:12:01;19.80;27.00
7341;DHT22;6870;50.944;6.932;2023-04-15T04:14:29;20.10;27.30
7341;DHT22;6870;50.944;6.932;2023-04-15T04:16:57;20.10;27.30
7341;DHT22;6870;50.944;6.932;2023-04-15T04:19:25;20.00;27.20
7341;DHT22;6870;50.944;6.932;2023-04-15T04:21:56;19.80;26.70
7341;DHT22;6870;50.944;6.932;2023-04-15T04:24:24;19.80;26.50
7341;DHT22;6870;50.944;6.932;2023-04-15T04:26:53;19.90;27.10
7341;DHT22;6870;50.944;6.932;2023-04-15T04:29:22;20.00;26.80
7341;DHT22;6870;50.944;6.932;2023-04-15T04:31:50;19.70;27.00
7341;DHT22;6870;50.944;6.932;2023-04-15T04:34:18;20.10;27.30
7341;DHT22;6870;50.944;6.932;2023-04-15T04:36:46;20.00;27.20
7341;DHT22;6870;50.944;6.932;2023-04-15T04:39:15;19.80;27.10
7341;DHT22;6870;50.944;6.932;2023-04-15T04:41:43;20.00;26.90
7341;DHT22;6870;50.944;6.932;2023-04-15T04:44:11;19.80;26.90
7341;DHT22;6870;50.944;6.932;2023-04-15T04:46:39;19.80;27.10
7341;DHT22;6870;50.944;6.932;2023-04-15T04:49:07;19.60;26.40
7341;DHT22;6870;50.944;6.932;2023-04-15T04:51:35;20.10;26.90
7341;DHT22;6870;50.944;6.932;2023-04-15T04:54:03;20.10;27.40
7341;DHT22;6870;50.944;6.932;2023-04-15T04:56:32;20.10;27.20
7341;DHT22;6870;50.944;6.932;2023-04-15T04:59:01;19.80;27.10
7341;DHT22;6870;50.944;6.932;2023-04-15T05:01:29;19.90;27.30
7341;DHT22;6870;50.944;6.932;2023-04-15T05:03:57;19.90;27.00
7341;DHT22;6870;50.944;6.932;2023-04-15T05:06:25;19.70;27.10
7341;DHT22;6870;50.944;6.932;2023-04-15T05:08:56;20.00;27.30
7341;DHT22;6870;50.944;6.932;2023-04-15T05:11:24;19.70;27.00
7341;DHT22;6870;50.944;6.932;2023-04-15T05:13:53;19.70;26.80
7341;DHT22;6870;50.944;6.932;2023-04-15T05:16:21;19.90;27.30
7341;DHT22;6870;50.944;6.932;2023-04-15T05:18:51;19.70;27.20
7341;DHT22;6870;50.944;6.932;2023-04-15T05:21:19;19.80;27.30
7341;DHT22;6870;50.944;6.932;2023-04-15T05:23:47;19.70;27.20
7341;DHT22;6870;50.944;6.932;2023-04-15T05:26:15;19.80;27.00
7341;DHT22;6870;50.944;6.932;2023-04-15T05:28:43;19.70;26.80
7341;DHT22;6870;50.944;6.932;2023-04-15T05:31:13;19.80;27.10
7341;DHT22;6870;50.944;6.932;2023-04-15T05:33:41;19.80;27.30
7341;DHT22;6870;50.944;6.932;2023-04-15T05:36:09;19.90;27.30
7341;DHT22;6870;50.944;6.932;2023-04-15T05:38:37;19.80;27.40
7341;DHT22;6870;50.944;6.932;2023-04-15T05:41:05;20.10;27.50
7341;DHT22;6870;50.944;6.932;2023-04-15T05:43:33;19.70;26.70
7341;DHT22;6870;50.944;6.932;2023-04-15T05:46:01;19.80;27.30
7341;DHT22;6870;50.944;6.932;2023-04-15T05:48:30;19.90;27.30
7341;DHT22;6870;50.944;6.932;2023-04-15T05:50:59;20.30;27.50
7341;DHT22;6870;50.944;6.932;2023-04-15T05:53:27;19.90;27.30
7341;DHT22;6870;50.944;6.932;2023-04-15T05:55:55;20.20;26.90
7341;DHT22;6870;50.944;6.932;2023-04-15T05:58:23;19.70;27.00
7341;DHT22;6870;50.944;6.932;2023-04-15T06:00:51;19.80;27.00
7341;DHT22;6870;50.944;6.932;2023-04-15T06:03:19;19.90;27.10
7341;DHT22;6870;50.944;6.932;2023-04-15T06:05:50;20.40;27.10
7341;DHT22;6870;50.944;6.932;2023-04-15T06:08:18;20.00;26.90
7341;DHT22;6870;50.944;6.932;2023-04-15T06:10:46;20.30;27.30
7341;DHT22;6870;50.944;6.932;2023-04-15T06:13:14;20.40;27.30
7341;DHT22;6870;50.944;6.932;2023-04-15T06:15:42;20.10;26.80
7341;DHT22;6870;50.944;6.932;2023-04-15T06:18:10;20.30;27.20
7341;DHT22;6870;50.944;6.932;2023-04-15T06:20:38;20.20;27.20
7341;DHT22;6870;50.944;6.932;2023-04-15T06:23:08;20.10;27.10
7341;DHT22;6870;50.944;6.932;2023-04-15T06:25:36;20.20;27.30
7341;DHT22;6870;50.944;6.932;2023-04-15T06:28:05;20.40;27.30
7341;DHT22;6870;50.944;6.932;2023-04-15T06:30:33;20.40;27.40
7341;DHT22;6870;50.944;6.932;2023-04-15T06:33:02;20.00;27.10
7341;DHT22;6870;50.944;6.932;2023-04-15T06:35:31;20.40;27.30
7341;DHT22;6870;50.944;6.932;2023-04-15T06:37:59;20.20;27.30
7341;DHT22;6870;50.944;6.932;2023-04-15T06:40:28;20.30;27.30
7341;DHT22;6870;50.944;6.932;2023-04-15T06:42:56;20.20;27.20
7341;DHT22;6870;50.944;6.932;2023-04-15T06:45:24;20.00;27.20
7341;DHT22;6870;50.944;6.932;2023-04-15T06:47:53;20.00;27.10
7341;DHT22;6870;50.944;6.932;2023-04-15T06:50:21;19.90;27.10
7341;DHT22;6870;50.944;6.932;2023-04-15T06:52:49;20.00;27.00
7341;DHT22;6870;50.944;6.932;2023-04-15T06:55:17;20.20;27.30
7341;DHT22;6870;50.944;6.932;2023-04-15T06:57:46;20.30;27.10
7341;DHT22;6870;50.944;6.932;2023-04-15T07:00:14;20.00;27.10
7341;DHT22;6870;50.944;6.932;2023-04-15T07:02:43;20.20;27.20
7341;DHT22;6870;50.944;6.932;2023-04-15T07:05:12;20.30;27.20
7341;DHT22;6870;50.944;6.932;2023-04-15T07:07:41;20.40;27.30
7341;DHT22;6870;50.944;6.932;2023-04-15T07:10:09;20.60;27.10
7341;DHT22;6870;50.944;6.932;2023-04-15T07:12:37;20.40;27.10
7341;DHT22;6870;50.944;6.932;2023-04-15T07:15:07;20.30;27.00
7341;DHT22;6870;50.944;6.932;2023-04-15T07:17:36;20.30;26.70
7341;DHT22;6870;50.944;6.932;2023-04-15T07:20:05;20.20;26.40
7341;DHT22;6870;50.944;6.932;2023-04-15T07:22:34;20.40;26.60
7341;DHT22;6870;50.944;6.932;2023-04-15T07:25:02;20.60;26.40
7341;DHT22;6870;50.944;6.932;2023-04-15T07:27:30;20.70;26.20
7341;DHT22;6870;50.944;6.932;2023-04-15T07:29:59;20.60;25.80
7341;DHT22;6870;50.944;6.932;2023-04-15T07:32:28;20.80;25.70
7341;DHT22;6870;50.944;6.932;2023-04-15T07:34:56;20.70;25.30
7341;DHT22;6870;50.944;6.932;2023-04-15T07:37:24;20.90;25.10
7341;DHT22;6870;50.944;6.932;2023-04-15T07:39:54;20.80;24.90
7341;DHT22;6870;50.944;6.932;2023-04-15T07:42:22;20.90;24.90
7341;DHT22;6870;50.944;6.932;2023-04-15T07:44:50;20.90;24.80
7341;DHT22;6870;50.944;6.932;2023-04-15T07:47:18;20.90;24.60
7341;DHT22;6870;50.944;6.932;2023-04-15T07:49:48;20.90;24.60
7341;DHT22;6870;50.944;6.932;2023-04-15T07:52:17;21.20;24.40
7341;DHT22;6870;50.944;6.932;2023-04-15T07:54:45;20.80;24.40
7341;DHT22;6870;50.944;6.932;2023-04-15T07:57:13;21.30;24.60
7341;DHT22;6870;50.944;6.932;2023-04-15T07:59:42;21.00;24.20
7341;DHT22;6870;50.944;6.932;2023-04-15T08:02:10;21.10;23.90
7341;DHT22;6870;50.944;6.932;2023-04-15T08:04:39;21.40;24.30
7341;DHT22;6870;50.944;6.932;2023-04-15T08:07:09;21.30;24.30
7341;DHT22;6870;50.944;6.932;2023-04-15T08:09:37;21.30;23.60
7341;DHT22;6870;50.944;6.932;2023-04-15T08:12:05;21.30;23.90
7341;DHT22;6870;50.944;6.932;2023-04-15T08:14:35;21.50;24.30
7341;DHT22;6870;50.944;6.932;2023-04-15T08:17:03;21.30;24.10
7341;DHT22;6870;50.944;6.932;2023-04-15T08:19:31;21.30;23.80
7341;DHT22;6870;50.944;6.932;2023-04-15T08:21:59;21.30;24.40
7341;DHT22;6870;50.944;6.932;2023-04-15T08:24:29;21.10;24.00
7341;DHT22;6870;50.944;6.932;2023-04-15T08:26:58;21.60;24.60
7341;DHT22;6870;50.944;6.932;2023-04-15T08:29:28;21.60;24.60
7341;DHT22;6870;50.944;6.932;2023-04-15T08:31:56;21.50;23.90
7341;DHT22;6870;50.944;6.932;2023-04-15T08:34:25;21.70;24.60
7341;DHT22;6870;50.944;6.932;2023-04-15T08:36:53;21.40;24.40
7341;DHT22;6870;50.944;6.932;2023-04-15T08:39:21;21.70;24.60
7341;DHT22;6870;50.944;6.932;2023-04-15T08:41:55;21.40;24.30
7341;DHT22;6870;50.944;6.932;2023-04-15T08:44:29;21.70;24.50
7341;DHT22;6870;50.944;6.932;2023-04-15T08:47:01;21.50;24.30
7341;DHT22;6870;50.944;6.932;2023-04-15T08:49:30;21.60;24.30
7341;DHT22;6870;50.944;6.932;2023-04-15T08:51:59;22.10;24.70
7341;DHT22;6870;50.944;6.932;2023-04-15T08:54:27;22.10;24.50
7341;DHT22;6870;50.944;6.932;2023-04-15T08:56:57;21.60;24.20
7341;DHT22;6870;50.944;6.932;2023-04-15T08:59:25;21.70;24.30
7341;DHT22;6870;50.944;6.932;2023-04-15T09:01:54;21.60;23.90
7341;DHT22;6870;50.944;6.932;2023-04-15T09:04:22;21.80;24.40
7341;DHT22;6870;50.944;6.932;2023-04-15T09:06:50;21.60;23.80
7341;DHT22;6870;50.944;6.932;2023-04-15T09:09:18;21.80;24.30
7341;DHT22;6870;50.944;6.932;2023-04-15T09:11:46;21.90;24.40
7341;DHT22;6870;50.944;6.932;2023-04-15T09:14:16;22.00;24.40
7341;DHT22;6870;50.944;6.932;2023-04-15T09:16:58;22.20;24.60
7341;DHT22;6870;50.944;6.932;2023-04-15T09:19:27;21.80;24.30
7341;DHT22;6870;50.944;6.932;2023-04-15T09:21:58;21.90;24.20
7341;DHT22;6870;50.944;6.932;2023-04-15T09:24:34;21.80;24.10
7341;DHT22;6870;50.944;6.932;2023-04-15T09:27:04;21.90;24.10
7341;DHT22;6870;50.944;6.932;2023-04-15T09:29:33;21.60;23.80
7341;DHT22;6870;50.944;6.932;2023-04-15T09:32:10;21.70;22.80
7341;DHT22;6870;50.944;6.932;2023-04-15T09:34:38;21.90;23.80
7341;DHT22;6870;50.944;6.932;2023-04-15T09:37:06;21.90;23.90
7341;DHT22;6870;50.944;6.932;2023-04-15T09:39:47;22.00;22.80
7341;DHT22;6870;50.944;6.932;2023-04-15T09:42:16;22.00;24.00
7341;DHT22;6870;50.944;6.932;2023-04-15T09:44:51;22.30;24.20
7341;DHT22;6870;50.944;6.932;2023-04-15T09:47:28;21.70;23.80
7341;DHT22;6870;50.944;6.932;2023-04-15T09:49:57;22.00;24.10
7341;DHT22;6870;50.944;6.932;2023-04-15T09:52:26;22.00;18.80
7341;DHT22;6870;50.944;6.932;2023-04-15T09:54:56;21.60;17.00
7341;DHT22;6870;50.944;6.932;2023-04-15T09:57:34;21.70;17.20
7341;DHT22;6870;50.944;6.932;2023-04-15T10:00:05;21.80;16.00
7341;DHT22;6870;50.944;6.932;2023-04-15T10:02:36;21.60;16.90
7341;DHT22;6870;50.944;6.932;2023-04-15T10:05:05;21.50;18.50
7341;DHT22;6870;50.944;6.932;2023-04-15T10:07:34;21.80;18.70
7341;DHT22;6870;50.944;6.932;2023-04-15T10:10:03;22.00;18.50
7341;DHT22;6870;50.944;6.932;2023-04-15T10:12:32;22.20;16.60
7341;DHT22;6870;50.944;6.932;2023-04-15T10:15:04;21.70;15.40
7341;DHT22;6870;50.944;6.932;2023-04-15T10:17:33;21.80;17.70
7341;DHT22;6870;50.944;6.932;2023-04-15T10:20:03;22.10;15.70
7341;DHT22;6870;50.944;6.932;2023-04-15T10:22:34;21.90;15.00
7341;DHT22;6870;50.944;6.932;2023-04-15T10:25:03;21.60;16.70
7341;DHT22;6870;50.944;6.932;2023-04-15T10:27:32;22.00;17.40
7341;DHT22;6870;50.944;6.932;2023-04-15T10:30:01;22.20;16.20
7341;DHT22;6870;50.944;6.932;2023-04-15T10:32:31;21.60;16.00
7341;DHT22;6870;50.944;6.932;2023-04-15T10:35:00;21.60;15.30
7341;DHT22;6870;50.944;6.932;2023-04-15T10:37:34;22.00;14.90
7341;DHT22;6870;50.944;6.932;2023-04-15T10:40:23;22.10;14.20
7341;DHT22;6870;50.944;6.932;2023-04-15T10:42:54;21.70;15.50
7341;DHT22;6870;50.944;6.932;2023-04-15T10:45:25;22.10;15.00
7341;DHT22;6870;50.944;6.932;2023-04-15T10:47:56;21.90;15.40
7341;DHT22;6870;50.944;6.932;2023-04-15T10:50:29;21.70;15.50
7341;DHT22;6870;50.944;6.932;2023-04-15T10:52:58;21.70;15.90
7341;DHT22;6870;50.944;6.932;2023-04-15T10:55:31;21.60;14.80
7341;DHT22;6870;50.944;6.932;2023-04-15T10:58:00;21.50;17.20
7341;DHT22;6870;50.944;6.932;2023-04-15T11:00:31;21.70;15.60
7341;DHT22;6870;50.944;6.932;2023-04-15T11:03:06;21.70;16.20
7341;DHT22;6870;50.944;6.932;2023-04-15T11:05:49;21.70;16.50
7341;DHT22;6870;50.944;6.932;2023-04-15T11:08:17;21.70;17.30
7341;DHT22;6870;50.944;6.932;2023-04-15T11:10:50;21.80;17.20
7341;DHT22;6870;50.944;6.932;2023-04-15T11:13:28;22.20;17.60
7341;DHT22;6870;50.944;6.932;2023-04-15T11:16:00;22.10;17.60
7341;DHT22;6870;50.944;6.932;2023-04-15T11:18:32;22.20;17.90
7341;DHT22;6870;50.944;6.932;2023-04-15T11:21:03;22.00;17.80
7341;DHT22;6870;50.944;6.932;2023-04-15T11:23:34;21.80;17.70
7341;DHT22;6870;50.944;6.932;2023-04-15T11:26:06;22.00;18.00
7341;DHT22;6870;50.944;6.932;2023-04-15T11:28:39;22.40;18.30
7341;DHT22;6870;50.944;6.932;2023-04-15T11:31:09;22.00;18.20
7341;DHT22;6870;50.944;6.932;2023-04-15T11:33:45;22.50;17.90
7341;DHT22;6870;50.944;6.932;2023-04-15T11:36:13;22.10;18.50
7341;DHT22;6870;50.944;6.932;2023-04-15T11:38:42;22.10;18.50
7341;DHT22;6870;50.944;6.932;2023-04-15T11:41:11;22.40;18.90
7341;DHT22;6870;50.944;6.932;2023-04-15T11:43:41;22.30;18.90
7341;DHT22;6870;50.944;6.932;2023-04-15T11:46:09;21.90;18.70
7341;DHT22;6870;50.944;6.932;2023-04-15T11:48:43;22.00;18.80
7341;DHT22;6870;50.944;6.932;2023-04-15T11:51:13;21.90;18.50
7341;DHT22;6870;50.944;6.932;2023-04-15T11:53:43;22.20;19.00
7341;DHT22;6870;50.944;6.932;2023-04-15T11:56:17;22.10;19.10
7341;DHT22;6870;50.944;6.932;2023-04-15T11:58:46;22.40;19.40
7341;DHT22;6870;50.944;6.932;2023-04-15T12:01:16;21.90;19.10
7341;DHT22;6870;50.944;6.932;2023-04-15T12:03:46;22.10;19.20
7341;DHT22;6870;50.944;6.932;2023-04-15T12:06:17;22.20;19.60
7341;DHT22;6870;50.944;6.932;2023-04-15T12:08:57;21.80;19.70
7341;DHT22;6870;50.944;6.932;2023-04-15T12:11:36;22.40;20.20
7341;DHT22;6870;50.944;6.932;2023-04-15T12:14:10;22.00;20.10
7341;DHT22;6870;50.944;6.932;2023-04-15T12:16:40;22.00;20.30
7341;DHT22;6870;50.944;6.932;2023-04-15T12:19:19;22.00;20.50
7341;DHT22;6870;50.944;6.932;2023-04-15T12:21:50;22.20;20.70
7341;DHT22;6870;50.944;6.932;2023-04-15T12:24:21;22.10;20.70
7341;DHT22;6870;50.944;6.932;2023-04-15T12:26:50;21.90;20.70
7341;DHT22;6870;50.944;6.932;2023-04-15T12:29:23;22.30;21.00
7341;DHT22;6870;50.944;6.932;2023-04-15T12:31:54;22.00;20.80
7341;DHT22;6870;50.944;6.932;2023-04-15T12:34:29;21.80;20.70
7341;DHT22;6870;50.944;6.932;2023-04-15T12:36:59;22.40;21.40
7341;DHT22;6870;50.944;6.932;2023-04-15T12:39:29;21.80;21.00
7341;DHT22;6870;50.944;6.932;2023-04-15T12:41:58;21.70;20.90
7341;DHT22;6870;50.944;6.932;2023-04-15T12:44:27;22.10;21.30
7341;DHT22;6870;50.944;6.932;2023-04-15T12:46:55;22.30;21.50
7341;DHT22;6870;50.944;6.932;2023-04-15T12:49:24;21.80;21.30
7341;DHT22;6870;50.944;6.932;2023-04-15T12:51:55;22.30;21.80
7341;DHT22;6870;50.944;6.932;2023-04-15T12:54:25;22.00;21.90
7341;DHT22;6870;50.944;6.932;2023-04-15T12:56:54;22.50;22.10
7341;DHT22;6870;50.944;6.932;2023-04-15T12:59:22;22.30;22.10
7341;DHT22;6870;50.944;6.932;2023-04-15T13:01:51;22.10;22.40
7341;DHT22;6870;50.944;6.932;2023-04-15T13:04:20;22.00;22.50
7341;DHT22;6870;50.944;6.932;2023-04-15T13:06:49;22.30;23.00
7341;DHT22;6870;50.944;6.932;2023-04-15T13:09:18;22.30;23.00
7341;DHT22;6870;50.944;6.932;2023-04-15T13:11:46;22.40;23.20
7341;DHT22;6870;50.944;6.932;2023-04-15T13:14:14;22.20;23.20
7341;DHT22;6870;50.944;6.932;2023-04-15T13:16:42;22.10;23.20
7341;DHT22;6870;50.944;6.932;2023-04-15T13:19:10;22.30;23.70
7341;DHT22;6870;50.944;6.932;2023-04-15T13:21:38;21.80;23.30
7341;DHT22;6870;50.944;6.932;2023-04-15T13:24:06;21.80;23.00
7341;DHT22;6870;50.944;6.932;2023-04-15T13:26:36;21.60;23.30
7341;DHT22;6870;50.944;6.932;2023-04-15T13:29:04;21.80;23.50
7341;DHT22;6870;50.944;6.932;2023-04-15T13:31:32;22.10;23.90
7341;DHT22;6870;50.944;6.932;2023-04-15T13:34:01;21.80;23.70
7341;DHT22;6870;50.944;6.932;2023-04-15T13:36:29;21.90;23.90
7341;DHT22;6870;50.944;6.932;2023-04-15T13:38:57;21.90;23.90
7341;DHT22;6870;50.944;6.932;2023-04-15T13:41:25;21.70;23.90
7341;DHT22;6870;50.944;6.932;2023-04-15T13:43:55;21.70;24.10
7341;DHT22;6870;50.944;6.932;2023-04-15T13:46:24;21.60;23.90
7341;DHT22;6870;50.944;6.932;2023-04-15T13:48:52;21.60;22.80
7341;DHT22;6870;50.944;6.932;2023-04-15T13:51:20;21.60;24.00
7341;DHT22;6870;50.944;6.932;2023-04-15T13:53:48;21.80;24.10
7341;DHT22;6870;50.944;6.932;2023-04-15T13:56:16;21.60;24.00
7341;DHT22;6870;50.944;6.932;2023-04-15T13:58:44;21.70;24.10
7341;DHT22;6870;50.944;6.932;2023-04-15T14:01:14;21.80;24.20
7341;DHT22;6870;50.944;6.932;2023-04-15T14:03:42;21.70;23.20
7341;DHT22;6870;50.944;6.932;2023-04-15T14:06:10;21.70;24.10
7341;DHT22;6870;50.944;6.932;2023-04-15T14:08:38;21.60;24.10
7341;DHT22;6870;50.944;6.932;2023-04-15T14:11:06;21.60;24.10
7341;DHT22;6870;50.944;6.932;2023-04-15T14:13:35;21.60;23.30
7341;DHT22;6870;50.944;6.932;2023-04-15T14:16:03;21.70;24.30
7341;DHT22;6870;50.944;6.932;2023-04-15T14:18:33;21.60;24.20
7341;DHT22;6870;50.944;6.932;2023-04-15T14:21:04;21.50;24.10
7341;DHT22;6870;50.944;6.932;2023-04-15T14:23:32;21.90;24.40
7341;DHT22;6870;50.944;6.932;2023-04-15T14:26:00;21.40;23.80
7341;DHT22;6870;50.944;6.932;2023-04-15T14:28:28;21.40;23.60
7341;DHT22;6870;50.944;6.932;2023-04-15T14:30:57;21.50;24.10
7341;DHT22;6870;50.944;6.932;2023-04-15T14:33:26;21.60;24.10
7341;DHT22;6870;50.944;6.932;2023-04-15T14:35:55;21.30;23.90
7341;DHT22;6870;50.944;6.932;2023-04-15T14:38:23;21.70;24.20
7341;DHT22;6870;50.944;6.932;2023-04-15T14:40:51;21.30;23.20
7341;DHT22;6870;50.944;6.932;2023-04-15T14:43:19;21.30;23.70
7341;DHT22;6870;50.944;6.932;2023-04-15T14:45:48;21.50;24.20
7341;DHT22;6870;50.944;6.932;2023-04-15T14:48:17;21.50;24.00
7341;DHT22;6870;50.944;6.932;2023-04-15T14:50:45;21.50;24.20
7341;DHT22;6870;50.944;6.932;2023-04-15T14:53:14;21.60;24.00
7341;DHT22;6870;50.944;6.932;2023-04-15T14:55:42;21.40;24.30
7341;DHT22;6870;50.944;6.932;2023-04-15T14:58:11;21.50;24.40
7341;DHT22;6870;50.944;6.932;2023-04-15T15:00:39;21.30;24.30
7341;DHT22;6870;50.944;6.932;2023-04-15T15:03:10;21.50;24.40
7341;DHT22;6870;50.944;6.932;2023-04-15T15:05:40;21.70;24.50
7341;DHT22;6870;50.944;6.932;2023-04-15T15:08:08;21.40;24.30
7341;DHT22;6870;50.944;6.932;2023-04-15T15:10:39;21.50;24.30
7341;DHT22;6870;50.944;6.932;2023-04-15T15:13:16;21.40;24.10
7341;DHT22;6870;50.944;6.932;2023-04-15T15:15:45;21.40;24.00
7341;DHT22;6870;50.944;6.932;2023-04-15T15:18:15;21.50;24.10
7341;DHT22;6870;50.944;6.932;2023-04-15T15:20:44;21.30;24.00
7341;DHT22;6870;50.944;6.932;2023-04-15T15:23:12;21.50;23.50
7341;DHT22;6870;50.944;6.932;2023-04-15T15:25:42;21.40;24.10
7341;DHT22;6870;50.944;6.932;2023-04-15T15:28:10;21.10;24.10
7341;DHT22;6870;50.944;6.932;2023-04-15T15:30:38;21.50;24.50
7341;DHT22;6870;50.944;6.932;2023-04-15T15:33:06;21.50;24.50
7341;DHT22;6870;50.944;6.932;2023-04-15T15:35:34;21.30;24.40
7341;DHT22;6870;50.944;6.932;2023-04-15T15:38:02;21.30;25.00
7341;DHT22;6870;50.944;6.932;2023-04-15T15:40:32;21.50;24.80
7341;DHT22;6870;50.944;6.932;2023-04-15T15:43:01;21.40;24.50
7341;DHT22;6870;50.944;6.932;2023-04-15T15:45:30;21.40;24.20
7341;DHT22;6870;50.944;6.932;2023-04-15T15:47:58;21.40;24.80
7341;DHT22;6870;50.944;6.932;2023-04-15T15:50:27;21.40;24.80
7341;DHT22;6870;50.944;6.932;2023-04-15T15:52:55;21.50;24.80
7341;DHT22;6870;50.944;6.932;2023-04-15T15:55:24;21.30;24.70
7341;DHT22;6870;50.944;6.932;2023-04-15T15:57:52;21.00;24.50
7341;DHT22;6870;50.944;6.932;2023-04-15T16:00:22;21.40;24.50
7341;DHT22;6870;50.944;6.932;2023-04-15T16:02:54;21.40;24.70
7341;DHT22;6870;50.944;6.932;2023-04-15T16:05:26;21.60;25.10
7341;DHT22;6870;50.944;6.932;2023-04-15T16:07:54;21.20;24.90
7341;DHT22;6870;50.944;6.932;2023-04-15T16:10:22;21.40;24.40
7341;DHT22;6870;50.944;6.932;2023-04-15T16:12:50;21.40;25.20
7341;DHT22;6870;50.944;6.932;2023-04-15T16:15:18;20.90;24.40
7341;DHT22;6870;50.944;6.932;2023-04-15T16:17:48;21.40;25.10